Time;durP1;ratioP1;P1;durP2;ratioP2;P2;SDS_P1;SDS_P2;PMS_P1;PMS_P2;Temp;Humidity;BMP_temperature;BMP_pressure;BME280_temperature;BME280_humidity;BME280_pressure;Samples;Min_cycle;Max_cycle;Signal;HPM_P1;HPM_P2
2024/01/07 00:01:02;;;;;;;8.82;6.53;;;3.10;99.90;;;;;;5054747;28;20123;-68
2024/01/07 00:03:27;;;;;;;9.43;6.57;;;3.10;99.90;;;;;;5058992;28;20025;-68
2024/01/07 00:05:53;;;;;;;11.25;6.55;;;3.10;99.90;;;;;;5055470;28;20051;-68
2024/01/07 00:08:19;;;;;;;11.43;6.93;;;3.10;99.90;;;;;;5055412;28;20028;-68
2024/01/07 00:10:44;;;;;;;9.57;6.15;;;3.00;99.90;;;;;;5055216;28;20025;-69
2024/01/07 00:13:10;;;;;;;10.02;6.53;;;3.10;99.90;;;;;;5055185;28;20384;-68
2024/01/07 00:15:35;;;;;;;9.18;5.60;;;3.10;99.90;;;;;;5055118;28;20029;-67
2024/01/07 00:18:01;;;;;;;8.10;4.60;;;3.00;99.90;;;;;;5054292;28;20527;-77
2024/01/07 00:20:27;;;;;;;8.77;4.65;;;2.90;99.90;;;;;;5055979;28;20021;-67
2024/01/07 00:22:56;;;;;;;9.73;5.20;;;2.70;99.90;;;;;;5055293;28;20105;-67
2024/01/07 00:25:21;;;;;;;6.57;4.30;;;2.70;99.90;;;;;;5055338;28;20044;-68
2024/01/07 00:27:47;;;;;;;9.05;4.53;;;2.70;99.90;;;;;;5055830;28;20036;-68
2024/01/07 00:30:13;;;;;;;6.15;4.28;;;2.60;99.90;;;;;;5056577;28;20029;-68
2024/01/07 00:32:39;;;;;;;6.50;3.70;;;2.60;99.90;;;;;;5054900;28;20025;-68
2024/01/07 00:35:05;;;;;;;6.30;4.07;;;2.60;99.90;;;;;;5054957;28;20476;-67
2024/01/07 00:37:31;;;;;;;6.65;4.57;;;2.50;99.90;;;;;;5054394;28;20025;-67
2024/01/07 00:39:56;;;;;;;6.88;4.38;;;2.50;99.90;;;;;;5054904;28;20135;-67
2024/01/07 00:42:22;;;;;;;5.75;3.67;;;2.40;99.90;;;;;;5055078;28;20043;-67
2024/01/07 00:44:48;;;;;;;7.43;3.95;;;2.40;99.90;;;;;;5053514;28;20079;-67
2024/01/07 00:47:13;;;;;;;5.82;3.72;;;2.40;99.90;;;;;;5054459;28;20025;-68
2024/01/07 00:49:40;;;;;;;4.72;3.55;;;2.30;99.90;;;;;;5053975;28;20461;-67
2024/01/07 00:52:06;;;;;;;6.85;3.70;;;2.40;99.90;;;;;;5053538;28;20040;-67
2024/01/07 00:54:31;;;;;;;4.78;3.50;;;2.30;99.90;;;;;;5055143;28;20049;-67
2024/01/07 00:56:57;;;;;;;5.72;3.38;;;2.30;99.90;;;;;;5054655;28;20060;-67
2024/01/07 00:59:22;;;;;;;7.68;4.05;;;2.30;99.90;;;;;;5053278;28;20028;-68
2024/01/07 01:01:48;;;;;;;6.95;3.55;;;2.20;99.90;;;;;;5053581;28;20120;-67
2024/01/07 01:04:14;;;;;;;6.20;3.72;;;2.20;99.90;;;;;;5054636;28;20036;-67
2024/01/07 01:06:39;;;;;;;5.15;3.25;;;2.20;99.90;;;;;;5053354;28;20029;-67
2024/01/07 01:09:05;;;;;;;7.00;3.83;;;2.20;99.90;;;;;;5053290;28;20025;-67
2024/01/07 01:11:31;;;;;;;6.32;4.20;;;2.20;99.90;;;;;;5054328;28;20037;-67
2024/01/07 01:13:56;;;;;;;6.75;4.35;;;2.30;99.90;;;;;;5054308;28;20020;-67
2024/01/07 01:16:23;;;;;;;6.07;3.95;;;2.30;99.90;;;;;;5053805;28;20025;-67
2024/01/07 01:18:49;;;;;;;8.80;4.68;;;2.30;99.90;;;;;;5052856;28;20650;-67
2024/01/07 01:21:15;;;;;;;6.53;4.10;;;2.30;99.90;;;;;;5053879;28;20017;-67
2024/01/07 01:23:41;;;;;;;5.72;3.83;;;2.30;99.90;;;;;;5054115;28;20461;-67
2024/01/07 01:26:06;;;;;;;5.80;4.50;;;2.20;99.90;;;;;;5052829;28;20497;-67
2024/01/07 01:28:32;;;;;;;7.03;3.80;;;2.20;99.90;;;;;;5053939;28;20029;-67
2024/01/07 01:30:58;;;;;;;6.20;4.68;;;2.20;99.90;;;;;;5054312;28;20040;-67
2024/01/07 01:33:23;;;;;;;7.85;4.40;;;2.20;99.90;;;;;;5053735;28;20099;-67
2024/01/07 01:35:49;;;;;;;8.25;4.82;;;2.10;99.90;;;;;;5053974;28;20503;-68
2024/01/07 01:38:15;;;;;;;5.85;4.25;;;2.30;99.90;;;;;;5053920;28;20523;-67
2024/01/07 01:40:40;;;;;;;7.65;5.07;;;2.10;99.90;;;;;;5053903;28;20033;-67
2024/01/07 01:43:06;;;;;;;7.90;5.10;;;2.20;99.90;;;;;;5052615;28;20028;-67
2024/01/07 01:45:32;;;;;;;8.00;5.05;;;2.20;99.90;;;;;;5053523;28;20029;-67
2024/01/07 01:47:57;;;;;;;8.57;5.35;;;2.10;99.90;;;;;;5053731;28;20376;-67
2024/01/07 01:50:24;;;;;;;8.85;5.43;;;2.20;99.90;;;;;;5052830;28;20445;-67
2024/01/07 01:52:50;;;;;;;8.88;5.13;;;2.10;99.90;;;;;;5053893;28;20559;-67
2024/01/07 01:55:16;;;;;;;7.38;5.28;;;2.10;99.90;;;;;;5053881;28;20055;-67
2024/01/07 01:57:45;;;;;;;9.77;5.20;;;2.10;99.90;;;;;;5053791;28;20412;-68
2024/01/07 02:00:11;;;;;;;12.30;5.60;;;2.00;99.90;;;;;;5053746;28;20108;-67
2024/01/07 02:02:37;;;;;;;9.07;5.40;;;2.00;99.90;;;;;;5053622;28;20044;-67
2024/01/07 02:05:03;;;;;;;9.65;5.82;;;2.00;99.90;;;;;;5053664;28;20043;-67
2024/01/07 02:07:30;;;;;;;9.25;5.95;;;2.10;99.90;;;;;;5052350;28;20028;-67
2024/01/07 02:09:56;;;;;;;10.82;6.10;;;2.10;99.90;;;;;;5052241;28;20186;-67
2024/01/07 02:12:22;;;;;;;8.45;5.85;;;2.20;99.90;;;;;;5052307;28;20508;-67
2024/01/07 02:14:47;;;;;;;10.73;6.50;;;2.00;99.90;;;;;;5053608;28;20027;-67
2024/01/07 02:17:14;;;;;;;9.57;6.75;;;2.10;99.90;;;;;;5053805;28;20100;-67
2024/01/07 02:19:39;;;;;;;9.35;6.30;;;2.00;99.90;;;;;;5052182;28;20037;-67
2024/01/07 02:22:05;;;;;;;9.82;6.47;;;2.10;99.90;;;;;;5053798;28;20029;-67
2024/01/07 02:24:32;;;;;;;11.23;6.03;;;2.10;99.90;;;;;;5053534;28;20468;-67
2024/01/07 02:26:58;;;;;;;8.18;5.40;;;2.00;99.90;;;;;;5053443;28;20025;-67
2024/01/07 02:29:23;;;;;;;8.48;5.75;;;1.90;99.90;;;;;;5054918;28;20472;-67
2024/01/07 02:31:49;;;;;;;9.73;5.78;;;1.80;99.90;;;;;;5056107;28;20232;-67
2024/01/07 02:34:15;;;;;;;9.73;6.07;;;1.80;99.90;;;;;;5057280;28;20032;-67
2024/01/07 02:36:40;;;;;;;8.68;5.63;;;1.80;99.90;;;;;;5057124;28;20033;-67
2024/01/07 02:39:06;;;;;;;9.98;6.53;;;1.80;99.90;;;;;;5056222;28;20061;-67
2024/01/07 02:41:32;;;;;;;10.88;5.88;;;1.80;99.90;;;;;;5057518;28;20465;-67
2024/01/07 02:43:57;;;;;;;10.50;6.00;;;1.70;99.90;;;;;;5060269;28;20029;-68
2024/01/07 02:46:24;;;;;;;13.02;7.45;;;1.80;99.90;;;;;;5058147;28;20116;-68
2024/01/07 02:48:49;;;;;;;10.65;6.25;;;1.70;99.90;;;;;;5058404;28;20029;-70
2024/01/07 02:51:15;;;;;;;12.82;7.20;;;1.80;99.90;;;;;;5060558;28;20044;-75
2024/01/07 02:53:41;;;;;;;12.02;6.22;;;1.70;99.90;;;;;;5060654;28;20049;-68
2024/01/07 02:56:08;;;;;;;10.13;6.55;;;1.60;99.90;;;;;;5056448;28;20420;-67
2024/01/07 02:58:34;;;;;;;9.45;6.40;;;1.60;99.90;;;;;;5057127;28;20024;-68
2024/01/07 03:01:00;;;;;;;9.98;6.28;;;2.30;99.90;;;;;;5055647;28;20036;-67
2024/01/07 03:03:26;;;;;;;11.38;6.97;;;1.60;99.90;;;;;;5056191;28;20025;-67
2024/01/07 03:05:51;;;;;;;13.05;6.97;;;1.50;99.90;;;;;;5056830;28;20384;-67
2024/01/07 03:08:17;;;;;;;10.02;6.47;;;1.60;99.90;;;;;;5056623;28;20024;-67
2024/01/07 03:10:42;;;;;;;12.80;6.82;;;1.60;99.90;;;;;;5056560;28;20091;-67
2024/01/07 03:13:09;;;;;;;11.70;7.47;;;;;;;;;;5055256;28;20469;-67
2024/01/07 03:15:34;;;;;;;10.05;6.93;;;1.70;99.90;;;;;;5055309;28;20025;-67
2024/01/07 03:18:00;;;;;;;12.02;7.18;;;;;;;;;;5055111;28;20041;-67
2024/01/07 03:20:26;;;;;;;12.82;7.35;;;1.60;99.90;;;;;;5056521;28;20036;-67
2024/01/07 03:22:51;;;;;;;9.90;6.47;;;1.60;99.90;;;;;;5055130;28;20068;-67
2024/01/07 03:25:17;;;;;;;13.25;7.28;;;1.60;99.90;;;;;;5055130;28;20035;-67
2024/01/07 03:27:43;;;;;;;12.52;6.68;;;1.60;99.90;;;;;;5055940;28;20028;-67
2024/01/07 03:30:09;;;;;;;12.23;7.60;;;1.50;99.90;;;;;;5056508;28;20029;-67
2024/01/07 03:32:35;;;;;;;12.43;7.40;;;1.50;99.90;;;;;;5056349;28;20022;-67
2024/01/07 03:35:02;;;;;;;11.65;8.02;;;1.50;99.90;;;;;;5054986;28;20128;-67
2024/01/07 03:37:27;;;;;;;13.82;7.82;;;1.50;99.90;;;;;;5056197;28;20025;-67
2024/01/07 03:39:53;;;;;;;12.60;7.95;;;1.50;99.90;;;;;;5055686;28;20132;-68
2024/01/07 03:42:19;;;;;;;14.40;8.02;;;1.40;99.90;;;;;;5055240;28;20025;-67
2024/01/07 03:44:45;;;;;;;14.35;7.40;;;1.70;99.90;;;;;;5056026;28;20025;-67
2024/01/07 03:47:10;;;;;;;13.85;7.82;;;2.40;99.90;;;;;;5054740;28;20135;-67
2024/01/07 03:49:37;;;;;;;12.02;7.65;;;1.50;99.90;;;;;;5055864;28;20029;-67
2024/01/07 03:52:04;;;;;;;13.60;7.68;;;1.40;99.90;;;;;;5056002;28;20083;-67
2024/01/07 03:54:29;;;;;;;13.40;7.53;;;1.40;99.90;;;;;;5056423;28;20041;-67
2024/01/07 03:56:55;;;;;;;13.75;8.63;;;1.40;99.90;;;;;;5058449;28;20032;-68
2024/01/07 03:59:23;;;;;;;13.35;8.40;;;1.40;99.90;;;;;;5058672;28;20033;-68
2024/01/07 04:01:48;;;;;;;14.32;7.88;;;1.30;99.90;;;;;;5056870;28;20039;-67
2024/01/07 04:04:14;;;;;;;10.95;7.10;;;1.20;99.90;;;;;;5056230;28;20025;-68
2024/01/07 04:06:39;;;;;;;14.23;7.88;;;1.20;99.90;;;;;;5056551;28;20029;-68
2024/01/07 04:09:05;;;;;;;13.40;8.40;;;1.30;99.90;;;;;;5056866;28;20376;-68
2024/01/07 04:11:31;;;;;;;14.38;7.47;;;1.20;99.90;;;;;;5054708;28;20511;-67
2024/01/07 04:13:56;;;;;;;14.82;8.32;;;1.20;99.90;;;;;;5055556;28;20032;-67
2024/01/07 04:16:22;;;;;;;12.77;7.57;;;1.20;99.90;;;;;;5054712;28;20021;-67
2024/01/07 04:18:48;;;;;;;13.90;8.15;;;1.20;99.90;;;;;;5055940;28;20033;-67
2024/01/07 04:21:13;;;;;;;13.07;8.20;;;1.10;99.90;;;;;;5054040;28;20032;-67
2024/01/07 04:23:40;;;;;;;13.63;8.27;;;1.10;99.90;;;;;;5053955;28;20056;-67
2024/01/07 04:26:07;;;;;;;13.60;8.63;;;1.20;99.90;;;;;;5054065;28;20461;-66
2024/01/07 04:28:32;;;;;;;14.73;7.93;;;1.30;99.90;;;;;;5054123;28;20039;-67
2024/01/07 04:30:58;;;;;;;14.30;8.02;;;1.10;99.90;;;;;;5055099;28;20032;-67
2024/01/07 04:33:24;;;;;;;14.23;7.72;;;1.20;99.90;;;;;;5055422;28;20025;-67
2024/01/07 04:35:49;;;;;;;12.25;7.93;;;1.10;99.90;;;;;;5054763;28;20025;-67
2024/01/07 04:38:15;;;;;;;14.00;8.10;;;1.10;99.90;;;;;;5053806;28;20033;-67
2024/01/07 04:40:41;;;;;;;15.10;7.70;;;1.10;99.90;;;;;;5053691;28;20021;-67
2024/01/07 04:43:06;;;;;;;12.80;8.02;;;1.10;99.90;;;;;;5055193;28;20519;-67
2024/01/07 04:45:32;;;;;;;13.82;7.63;;;1.10;99.90;;;;;;5054853;28;20021;-67
2024/01/07 04:47:57;;;;;;;12.85;8.02;;;1.10;99.90;;;;;;5054813;28;20363;-67
2024/01/07 04:50:23;;;;;;;14.50;8.43;;;1.10;99.90;;;;;;5054765;28;20037;-67
2024/01/07 04:52:49;;;;;;;13.27;8.20;;;1.00;99.90;;;;;;5052518;28;20089;-67
2024/01/07 04:55:14;;;;;;;15.00;8.00;;;1.00;99.90;;;;;;5054063;28;20420;-67
2024/01/07 04:57:40;;;;;;;16.40;9.40;;;1.10;99.90;;;;;;5053499;28;20029;-67
2024/01/07 05:00:06;;;;;;;14.23;8.55;;;1.40;99.90;;;;;;5053346;28;20381;-67
2024/01/07 05:02:32;;;;;;;17.27;9.02;;;1.00;99.90;;;;;;5054635;28;20040;-67
2024/01/07 05:04:57;;;;;;;16.20;8.48;;;0.90;99.90;;;;;;5055133;28;20033;-67
2024/01/07 05:07:23;;;;;;;17.30;9.00;;;0.90;99.90;;;;;;5056568;28;20112;-67
2024/01/07 05:09:49;;;;;;;14.45;8.63;;;;;;;;;;5055971;28;20114;-67
2024/01/07 05:12:15;;;;;;;14.48;8.68;;;1.00;99.90;;;;;;5055467;28;20083;-67
2024/01/07 05:14:42;;;;;;;15.23;9.30;;;0.90;99.90;;;;;;5053624;28;20453;-67
2024/01/07 05:17:09;;;;;;;15.82;8.45;;;0.90;99.90;;;;;;5053607;28;20029;-67
2024/01/07 05:19:35;;;;;;;15.15;9.00;;;1.10;99.90;;;;;;5054449;28;20033;-67
2024/01/07 05:22:00;;;;;;;15.65;9.75;;;0.90;99.90;;;;;;5054271;28;20453;-67
2024/01/07 05:24:26;;;;;;;19.48;9.20;;;0.80;99.90;;;;;;5054159;28;20033;-67
2024/01/07 05:26:52;;;;;;;17.75;8.90;;;0.80;99.90;;;;;;5052908;28;20025;-66
2024/01/07 05:29:18;;;;;;;14.45;9.27;;;0.90;99.90;;;;;;5054147;28;20035;-67
2024/01/07 05:31:44;;;;;;;18.38;8.98;;;0.80;99.90;;;;;;5054113;28;20027;-66
2024/01/07 05:34:09;;;;;;;16.35;8.60;;;0.80;99.90;;;;;;5052716;28;20033;-66
2024/01/07 05:36:35;;;;;;;16.80;8.65;;;0.80;99.90;;;;;;5052858;28;20033;-66
2024/01/07 05:39:01;;;;;;;16.25;8.65;;;0.80;99.90;;;;;;5052872;28;20031;-66
2024/01/07 05:41:26;;;;;;;15.05;8.52;;;0.80;99.90;;;;;;5053933;28;20048;-66
2024/01/07 05:43:52;;;;;;;14.18;8.98;;;0.80;99.90;;;;;;5053614;28;20036;-67
2024/01/07 05:46:18;;;;;;;16.40;9.70;;;0.80;99.90;;;;;;5053916;28;20039;-66
2024/01/07 05:48:45;;;;;;;19.10;9.18;;;0.80;99.90;;;;;;5054024;28;20370;-66
2024/01/07 05:51:12;;;;;;;17.17;8.32;;;0.80;99.90;;;;;;5053793;28;20044;-66
2024/01/07 05:53:37;;;;;;;13.10;7.57;;;0.70;99.90;;;;;;5053577;28;20049;-70
2024/01/07 05:56:03;;;;;;;14.55;8.52;;;0.70;99.90;;;;;;5053722;28;20025;-66
2024/01/07 05:58:29;;;;;;;14.25;8.15;;;0.70;99.90;;;;;;5052133;28;20103;-66
2024/01/07 06:00:55;;;;;;;13.43;7.18;;;0.70;99.90;;;;;;5053419;28;20025;-66
2024/01/07 06:03:21;;;;;;;15.38;9.05;;;0.70;99.90;;;;;;5054114;28;20021;-66
2024/01/07 06:05:47;;;;;;;15.57;8.00;;;0.60;99.90;;;;;;5058251;28;20025;-66
2024/01/07 06:08:13;;;;;;;14.27;7.60;;;0.60;99.90;;;;;;5057928;28;20041;-66
2024/01/07 06:10:39;;;;;;;13.20;8.70;;;0.60;99.90;;;;;;5057757;28;20033;-66
2024/01/07 06:13:05;;;;;;;13.85;8.60;;;;;;;;;;5057808;28;20029;-66
2024/01/07 06:15:31;;;;;;;14.95;8.18;;;0.60;99.90;;;;;;5057786;28;20033;-66
2024/01/07 06:17:56;;;;;;;15.82;8.23;;;0.60;99.90;;;;;;5057575;28;20025;-66
2024/01/07 06:20:23;;;;;;;14.45;7.97;;;0.60;99.90;;;;;;5057604;28;20021;-66
2024/01/07 06:22:48;;;;;;;15.25;8.68;;;0.70;99.90;;;;;;5056539;28;20037;-66
2024/01/07 06:25:14;;;;;;;13.65;7.82;;;0.60;99.90;;;;;;5056358;28;20429;-66
2024/01/07 06:27:41;;;;;;;14.85;8.30;;;0.60;99.90;;;;;;5057151;28;20465;-66
2024/01/07 06:30:07;;;;;;;14.82;7.80;;;0.50;99.90;;;;;;5056043;28;20036;-66
2024/01/07 06:32:33;;;;;;;14.52;7.78;;;0.60;99.90;;;;;;5057343;28;20029;-67
2024/01/07 06:34:59;;;;;;;13.77;7.57;;;0.50;99.90;;;;;;5057317;28;20063;-66
2024/01/07 06:37:25;;;;;;;11.98;7.53;;;0.50;99.90;;;;;;5056265;28;20060;-66
2024/01/07 06:39:51;;;;;;;13.82;8.10;;;0.50;99.90;;;;;;5056229;28;20067;-66
2024/01/07 06:42:17;;;;;;;14.43;7.35;;;0.60;99.90;;;;;;5057201;28;20025;-66
2024/01/07 06:44:43;;;;;;;11.02;7.18;;;0.60;99.90;;;;;;5055532;28;20519;-73
2024/01/07 06:47:08;;;;;;;12.20;6.95;;;0.60;99.90;;;;;;5056792;28;20060;-66
2024/01/07 06:49:34;;;;;;;11.70;7.38;;;0.60;99.90;;;;;;5056904;28;20025;-66
2024/01/07 06:51:59;;;;;;;12.48;7.53;;;0.60;99.90;;;;;;5055808;28;20472;-66
2024/01/07 06:54:25;;;;;;;9.93;6.30;;;0.60;99.90;;;;;;5055503;28;20068;-66
2024/01/07 06:56:51;;;;;;;11.65;7.18;;;0.50;99.90;;;;;;5057158;28;20074;-66
2024/01/07 06:59:16;;;;;;;11.55;7.10;;;0.50;99.90;;;;;;5056033;28;20476;-66
2024/01/07 07:01:42;;;;;;;16.90;7.85;;;0.40;99.90;;;;;;5056907;28;20105;-66
2024/01/07 07:04:08;;;;;;;11.43;7.35;;;1.00;99.90;;;;;;5057377;28;20115;-66
2024/01/07 07:06:34;;;;;;;12.55;7.30;;;0.40;99.90;;;;;;5056812;28;20029;-66
2024/01/07 07:09:00;;;;;;;11.88;7.75;;;0.50;99.90;;;;;;5056764;28;20067;-66
2024/01/07 07:11:25;;;;;;;12.80;7.35;;;0.50;99.90;;;;;;5056898;28;20412;-66
2024/01/07 07:13:51;;;;;;;13.23;7.30;;;0.50;99.90;;;;;;5057569;28;20039;-67
2024/01/07 07:16:17;;;;;;;11.10;7.07;;;0.50;99.90;;;;;;5058774;28;20032;-67
2024/01/07 07:18:42;;;;;;;12.63;6.82;;;0.60;99.90;;;;;;5059563;28;20112;-66
2024/01/07 07:21:08;;;;;;;13.38;7.53;;;0.50;99.90;;;;;;5058227;28;20028;-66
2024/01/07 07:23:34;;;;;;;13.25;7.05;;;0.60;99.90;;;;;;5056895;28;20452;-66
2024/01/07 07:25:59;;;;;;;11.75;6.75;;;0.40;99.90;;;;;;5055123;28;20156;-65
2024/01/07 07:28:25;;;;;;;11.65;6.82;;;0.50;99.90;;;;;;5054966;28;20115;-66
2024/01/07 07:30:51;;;;;;;11.95;7.05;;;0.50;99.90;;;;;;5056349;28;20064;-66
2024/01/07 07:33:17;;;;;;;10.13;6.65;;;1.10;99.90;;;;;;5056601;28;20021;-67
2024/01/07 07:35:43;;;;;;;11.98;7.10;;;0.50;99.90;;;;;;5055906;28;20075;-66
2024/01/07 07:38:08;;;;;;;13.90;7.90;;;0.40;99.90;;;;;;5054879;28;20028;-65
2024/01/07 07:40:34;;;;;;;17.17;8.68;;;0.40;99.90;;;;;;5056091;28;20381;-66
2024/01/07 07:42:59;;;;;;;12.45;7.90;;;0.40;99.90;;;;;;5055825;28;20064;-65
2024/01/07 07:45:25;;;;;;;18.83;8.07;;;0.60;99.90;;;;;;5056423;28;20025;-66
2024/01/07 07:47:51;;;;;;;12.73;8.13;;;0.40;99.90;;;;;;5054577;28;20060;-67
2024/01/07 07:50:16;;;;;;;16.45;8.90;;;0.40;99.90;;;;;;5046310;28;20461;-66
2024/01/07 07:52:45;;;;;;;13.63;8.18;;;0.40;99.90;;;;;;5034438;28;20129;-66
2024/01/07 07:55:11;;;;;;;;;;;0.40;99.90;;;;;;5044463;28;20456;-65
2024/01/07 07:57:40;;;;;;;13.73;7.45;;;0.40;99.90;;;;;;5055967;28;19991;-65
2024/01/07 08:00:06;;;;;;;;;;;0.40;99.90;;;;;;5054900;28;20124;-66
2024/01/07 08:02:32;;;;;;;15.70;7.32;;;0.30;99.90;;;;;;5054460;28;19908;-66
2024/01/07 08:04:58;;;;;;;12.70;7.80;;;0.30;99.90;;;;;;5054368;28;20036;-66
2024/01/07 08:07:23;;;;;;;17.55;8.32;;;0.80;99.90;;;;;;5054403;28;20451;-65
2024/01/07 08:09:49;;;;;;;14.05;8.25;;;0.30;99.90;;;;;;5055801;28;20495;-65
2024/01/07 08:12:15;;;;;;;15.38;8.38;;;0.80;99.90;;;;;;5054556;28;20136;-67
2024/01/07 08:14:44;;;;;;;14.77;8.80;;;0.30;99.90;;;;;;5052506;28;20029;-66
2024/01/07 08:17:10;;;;;;;15.45;8.48;;;0.30;99.90;;;;;;5054141;28;20029;-66
2024/01/07 08:19:36;;;;;;;15.48;8.10;;;0.30;99.90;;;;;;5056632;28;20472;-67
2024/01/07 08:22:01;;;;;;;14.73;8.90;;;0.60;99.90;;;;;;5056808;28;20555;-66
2024/01/07 08:24:27;;;;;;;15.27;8.80;;;0.30;99.90;;;;;;5054759;28;20053;-66
2024/01/07 08:26:53;;;;;;;14.55;8.18;;;0.30;99.90;;;;;;5055432;28;20436;-65
2024/01/07 08:29:19;;;;;;;14.30;8.35;;;0.40;99.90;;;;;;5054139;28;20033;-66
2024/01/07 08:31:44;;;;;;;14.10;7.75;;;0.20;99.90;;;;;;5053751;28;20029;-65
2024/01/07 08:34:10;;;;;;;15.77;7.93;;;0.20;99.90;;;;;;5053811;28;20056;-65
2024/01/07 08:36:35;;;;;;;14.95;8.05;;;0.20;99.90;;;;;;5053838;28;20108;-65
2024/01/07 08:39:01;;;;;;;12.45;6.82;;;0.30;99.90;;;;;;5053855;28;20029;-65
2024/01/07 08:41:27;;;;;;;14.90;8.00;;;0.30;99.90;;;;;;5054419;28;20021;-65
2024/01/07 08:43:52;;;;;;;16.05;8.35;;;0.20;99.90;;;;;;5054778;28;20025;-65
2024/01/07 08:46:21;;;;;;;15.20;8.40;;;0.20;99.90;;;;;;5054868;28;20021;-65
2024/01/07 08:48:47;;;;;;;;;;;0.30;99.90;;;;;;5053911;28;20025;-65
2024/01/07 08:51:13;;;;;;;13.15;8.43;;;0.20;99.90;;;;;;5053568;28;20007;-65
2024/01/07 08:53:39;;;;;;;15.82;8.48;;;0.20;99.90;;;;;;5053527;28;20119;-65
2024/01/07 08:56:06;;;;;;;16.80;8.25;;;1.40;99.90;;;;;;5054828;28;20025;-65
2024/01/07 08:58:32;;;;;;;14.88;8.10;;;0.30;99.90;;;;;;5054496;28;20036;-64
2024/01/07 09:00:58;;;;;;;15.23;8.20;;;0.30;99.90;;;;;;5052978;28;20025;-64
2024/01/07 09:03:23;;;;;;;13.98;7.97;;;0.50;99.90;;;;;;5053431;28;20025;-65
2024/01/07 09:05:49;;;;;;;13.63;8.13;;;0.30;99.90;;;;;;5054652;28;20033;-65
2024/01/07 09:08:15;;;;;;;17.05;8.32;;;0.30;99.90;;;;;;5054411;28;20033;-65
2024/01/07 09:10:40;;;;;;;12.15;7.35;;;0.40;99.90;;;;;;5054476;28;20029;-68
2024/01/07 09:13:06;;;;;;;16.05;8.18;;;0.30;99.90;;;;;;5053994;28;20029;-65
2024/01/07 09:15:32;;;;;;;10.48;7.35;;;0.30;99.90;;;;;;5053103;28;20112;-65
2024/01/07 09:17:57;;;;;;;13.57;6.93;;;0.40;99.90;;;;;;5053882;28;20029;-65
2024/01/07 09:20:23;;;;;;;11.60;7.25;;;0.30;99.90;;;;;;5052948;28;20143;-65
2024/01/07 09:22:49;;;;;;;15.98;7.70;;;0.30;99.90;;;;;;5054247;28;20100;-65
2024/01/07 09:25:15;;;;;;;14.63;7.30;;;0.30;99.90;;;;;;5054323;28;20021;-65
2024/01/07 09:27:40;;;;;;;14.52;7.10;;;0.30;99.90;;;;;;5054236;28;20032;-65
2024/01/07 09:30:07;;;;;;;14.98;7.15;;;0.20;99.90;;;;;;5053392;28;20049;-65
2024/01/07 09:32:33;;;;;;;16.05;7.25;;;0.20;99.90;;;;;;5052799;28;20108;-65
2024/01/07 09:34:59;;;;;;;15.82;6.57;;;0.40;99.90;;;;;;5053218;28;20033;-66
2024/01/07 09:37:25;;;;;;;12.05;6.55;;;0.10;99.90;;;;;;5053996;28;20083;-70
2024/01/07 09:39:51;;;;;;;11.60;6.60;;;0.10;99.90;;;;;;5053871;28;20052;-66
2024/01/07 09:42:18;;;;;;;24.38;7.35;;;0.10;99.90;;;;;;5052027;28;20064;-65
2024/01/07 09:44:43;;;;;;;14.02;6.85;;;0.10;99.90;;;;;;5051544;28;20025;-66
2024/01/07 09:47:14;;;;;;;13.98;6.32;;;0.10;99.90;;;;;;5050448;28;20063;-65
2024/01/07 09:49:40;;;;;;;14.10;6.82;;;0.40;99.90;;;;;;5052451;28;20040;-65
2024/01/07 09:52:08;;;;;;;13.80;6.30;;;0.10;99.90;;;;;;5053846;28;20036;-65
2024/01/07 09:54:38;;;;;;;11.30;6.38;;;0.10;99.90;;;;;;5052542;28;20073;-65
2024/01/07 09:57:07;;;;;;;12.40;6.85;;;1.20;99.90;;;;;;5050509;28;20102;-64
2024/01/07 09:59:35;;;;;;;12.02;6.00;;;0.20;99.90;;;;;;5053404;28;20040;-64
2024/01/07 10:02:01;;;;;;;10.55;6.47;;;0.20;99.90;;;;;;5052157;28;20044;-57
2024/01/07 10:04:30;;;;;;;13.23;7.22;;;0.40;99.90;;;;;;5052410;28;20377;-57
2024/01/07 10:06:56;;;;;;;12.23;7.15;;;0.80;99.90;;;;;;5053303;28;20040;-57
2024/01/07 10:09:26;;;;;;;12.82;6.13;;;0.90;99.90;;;;;;5053793;28;20051;-66
2024/01/07 10:11:52;;;;;;;12.68;7.57;;;0.90;99.90;;;;;;5052383;28;20040;-66
2024/01/07 10:14:17;;;;;;;11.45;6.35;;;0.80;99.90;;;;;;5052112;28;20377;-65
2024/01/07 10:16:43;;;;;;;10.60;6.57;;;0.70;99.90;;;;;;5052973;28;20496;-66
2024/01/07 10:19:09;;;;;;;11.98;5.88;;;0.50;99.90;;;;;;5053464;28;20036;-66
2024/01/07 10:21:35;;;;;;;10.85;5.78;;;0.40;99.90;;;;;;5052783;28;20102;-65
2024/01/07 10:24:11;;;;;;;10.82;6.00;;;0.30;99.90;;;;;;5052968;28;20037;-65
2024/01/07 10:26:43;;;;;;;11.27;6.00;;;0.20;99.90;;;;;;5053824;28;20029;-65
2024/01/07 10:29:08;;;;;;;11.48;6.18;;;0.20;99.90;;;;;;5053088;28;20032;-65
2024/01/07 10:31:35;;;;;;;11.40;5.70;;;0.20;99.90;;;;;;5052679;28;20033;-65
2024/01/07 10:34:00;;;;;;;12.45;5.70;;;0.30;99.90;;;;;;5053158;28;20033;-65
2024/01/07 10:36:27;;;;;;;12.75;6.18;;;0.20;99.90;;;;;;5051478;28;20026;-65
2024/01/07 10:38:54;;;;;;;11.45;6.05;;;0.20;99.90;;;;;;5051336;28;20432;-65
2024/01/07 10:41:20;;;;;;;14.45;6.30;;;0.10;99.90;;;;;;5050836;28;20483;-66
2024/01/07 10:43:49;;;;;;;11.93;6.20;;;0.20;99.90;;;;;;5052920;28;20025;-65
2024/01/07 10:46:16;;;;;;;14.80;6.65;;;0.10;99.90;;;;;;5052968;28;20100;-65
2024/01/07 10:48:58;;;;;;;12.90;6.07;;;0.20;99.90;;;;;;5053007;28;20033;-65
2024/01/07 10:51:27;;;;;;;10.73;6.05;;;0.40;99.90;;;;;;5056298;28;20037;-65
2024/01/07 10:53:56;;;;;;;11.98;6.50;;;0.20;99.90;;;;;;5056405;28;20053;-65
2024/01/07 10:56:29;;;;;;;;;;;0.30;99.90;;;;;;5055957;28;20465;-65
2024/01/07 10:58:56;;;;;;;12.07;6.40;;;0.30;99.90;;;;;;5057007;28;20001;-65
2024/01/07 11:01:21;;;;;;;10.32;5.97;;;0.30;99.90;;;;;;5055427;28;20396;-65
2024/01/07 11:04:16;;;;;;;13.77;6.93;;;0.30;99.90;;;;;;5057227;28;20028;-65
2024/01/07 11:06:46;;;;;;;9.15;5.90;;;0.40;99.90;;;;;;5055179;28;20025;-65
2024/01/07 11:09:36;;;;;;;9.48;5.57;;;0.50;99.90;;;;;;5055538;28;20051;-65
2024/01/07 11:12:02;;;;;;;12.85;5.75;;;;;;;;;;5055486;28;20036;-65
2024/01/07 11:14:39;;;;;;;10.70;6.75;;;0.40;99.90;;;;;;5056763;28;20096;-65
2024/01/07 11:17:08;;;;;;;12.52;6.68;;;0.30;99.90;;;;;;5056802;28;20029;-66
2024/01/07 11:19:37;;;;;;;11.30;6.53;;;0.40;99.90;;;;;;5057841;28;20033;-64
2024/01/07 11:22:27;;;;;;;12.23;6.88;;;0.50;99.90;;;;;;5059887;28;20029;-68
2024/01/07 11:24:55;;;;;;;12.95;6.45;;;0.40;99.90;;;;;;5060622;28;20079;-65
2024/01/07 11:27:22;;;;;;;13.18;6.88;;;0.40;99.90;;;;;;5058778;28;20032;-65
2024/01/07 11:29:56;;;;;;;10.30;6.07;;;0.40;99.90;;;;;;5056926;28;20128;-65
2024/01/07 11:32:24;;;;;;;11.85;5.85;;;0.40;99.90;;;;;;5057168;28;20476;-65
2024/01/07 11:34:53;;;;;;;12.07;5.65;;;0.50;99.90;;;;;;5056293;28;20025;-65
2024/01/07 11:37:19;;;;;;;11.55;6.47;;;0.50;99.90;;;;;;5056738;28;20519;-66
2024/01/07 11:39:46;;;;;;;10.77;6.32;;;1.20;99.90;;;;;;5057649;28;20476;-65
2024/01/07 11:42:12;;;;;;;13.57;6.60;;;0.40;99.90;;;;;;5057226;28;20055;-65
2024/01/07 11:44:44;;;;;;;11.98;6.50;;;0.60;99.90;;;;;;5056576;28;20033;-65
2024/01/07 11:47:10;;;;;;;13.48;8.02;;;0.40;99.90;;;;;;5056064;28;20025;-65
2024/01/07 11:49:36;;;;;;;16.52;7.90;;;0.30;99.90;;;;;;5054824;28;20485;-65
2024/01/07 11:52:03;;;;;;;11.70;7.40;;;0.30;99.90;;;;;;5054954;28;20044;-64
2024/01/07 11:54:29;;;;;;;18.98;8.07;;;0.40;99.90;;;;;;5054203;28;20106;-65
2024/01/07 11:56:56;;;;;;;15.82;8.43;;;0.40;99.90;;;;;;5054031;28;20029;-65
2024/01/07 11:59:22;;;;;;;13.70;8.13;;;0.30;99.90;;;;;;5054567;28;20021;-65
2024/01/07 12:01:47;;;;;;;15.35;8.73;;;0.30;99.90;;;;;;5053979;28;20021;-65
2024/01/07 12:04:13;;;;;;;13.65;8.60;;;0.20;99.90;;;;;;5054416;28;20067;-65
2024/01/07 12:06:40;;;;;;;16.02;8.55;;;0.20;99.90;;;;;;5054402;28;20116;-64
2024/01/07 12:09:06;;;;;;;12.95;7.57;;;0.20;99.90;;;;;;5055618;28;20388;-65
2024/01/07 12:11:33;;;;;;;15.02;7.63;;;0.30;99.90;;;;;;5054253;28;20064;-65
2024/01/07 12:13:59;;;;;;;15.20;8.07;;;0.30;99.90;;;;;;5055272;28;20044;-65
2024/01/07 12:16:25;;;;;;;14.13;9.23;;;0.20;99.90;;;;;;5053634;28;20035;-65
2024/01/07 12:18:51;;;;;;;16.73;9.30;;;0.30;99.90;;;;;;5054115;28;20119;-65
2024/01/07 12:21:21;;;;;;;15.27;8.93;;;0.40;99.90;;;;;;5055440;28;20027;-65
2024/01/07 12:23:50;;;;;;;16.05;8.60;;;0.50;99.90;;;;;;5035598;28;20488;-66
2024/01/07 12:26:16;;;;;;;;;;;0.20;99.90;;;;;;5054685;28;20064;-65
2024/01/07 12:28:42;;;;;;;18.58;8.00;;;1.60;99.90;;;;;;5053658;28;19962;-65
2024/01/07 12:31:09;;;;;;;16.38;9.10;;;0.10;99.90;;;;;;5053770;28;20164;-65
2024/01/07 12:33:37;;;;;;;18.27;8.95;;;0.20;99.90;;;;;;5054203;28;20025;-65
2024/01/07 12:36:03;;;;;;;13.93;8.13;;;0.20;99.90;;;;;;5054924;28;20460;-65
2024/01/07 12:38:29;;;;;;;16.30;9.07;;;0.20;99.90;;;;;;5056733;28;20040;-65
2024/01/07 12:40:55;;;;;;;19.75;9.68;;;0.30;99.90;;;;;;5054913;28;20487;-64
2024/01/07 12:43:20;;;;;;;18.27;10.25;;;0.30;99.90;;;;;;5054667;28;20123;-64
2024/01/07 12:45:47;;;;;;;13.95;8.57;;;0.10;99.90;;;;;;5054959;28;20373;-64
2024/01/07 12:48:13;;;;;;;15.63;8.43;;;0.10;99.90;;;;;;5054984;28;20037;-64